sensor_id;sensor_type;location;lat;lon;timestamp;temperature;humidity
19665;DHT22;9980;51.020;7.772;2022-11-04T00:00:29;14.00;99.90
19665;DHT22;9980;51.020;7.772;2022-11-04T00:03:15;14.00;99.90
19665;DHT22;9980;51.020;7.772;2022-11-04T00:05:54;13.90;99.90
19665;DHT22;9980;51.020;7.772;2022-11-04T00:08:40;13.90;99.90
19665;DHT22;9980;51.020;7.772;2022-11-04T00:11:19;13.90;99.90
19665;DHT22;9980;51.020;7.772;2022-11-04T00:14:27;13.80;99.90
19665;DHT22;9980;51.020;7.772;2022-11-04T00:17:11;13.80;99.90
19665;DHT22;9980;51.020;7.772;2022-11-04T00:20:05;13.80;99.90
19665;DHT22;9980;51.020;7.772;2022-11-04T00:22:57;13.70;99.90
19665;DHT22;9980;51.020;7.772;2022-11-04T00:26:08;13.70;99.90
19665;DHT22;9980;51.020;7.772;2022-11-04T00:29:00;13.60;99.90
19665;DHT22;9980;51.020;7.772;2022-11-04T00:31:53;13.60;99.90
19665;DHT22;9980;51.020;7.772;2022-11-04T00:34:51;13.50;99.90
19665;DHT22;9980;51.020;7.772;2022-11-04T00:37:42;13.50;99.90
19665;DHT22;9980;51.020;7.772;2022-11-04T00:40:22;13.40;99.90
19665;DHT22;9980;51.020;7.772;2022-11-04T00:43:08;13.40;99.90
19665;DHT22;9980;51.020;7.772;2022-11-04T00:45:47;13.30;99.90
19665;DHT22;9980;51.020;7.772;2022-11-04T00:48:33;13.30;99.90
19665;DHT22;9980;51.020;7.772;2022-11-04T00:51:12;13.20;99.90
19665;DHT22;9980;51.020;7.772;2022-11-04T00:54:00;13.20;99.90
19665;DHT22;9980;51.020;7.772;2022-11-04T00:56:40;13.10;99.90
19665;DHT22;9980;51.020;7.772;2022-11-04T00:59:27;13.10;99.90
19665;DHT22;9980;51.020;7.772;2022-11-04T01:02:08;13.10;99.90
19665;DHT22;9980;51.020;7.772;2022-11-04T01:05:02;13.10;99.90
19665;DHT22;9980;51.020;7.772;2022-11-04T01:07:35;13.00;99.90
19665;DHT22;9980;51.020;7.772;2022-11-04T01:10:28;13.00;99.90
19665;DHT22;9980;51.020;7.772;2022-11-04T01:13:01;12.90;99.90
19665;DHT22;9980;51.020;7.772;2022-11-04T01:15:57;12.90;99.90
19665;DHT22;9980;51.020;7.772;2022-11-04T01:18:31;12.90;99.90
19665;DHT22;9980;51.020;7.772;2022-11-04T01:21:24;12.90;99.90
19665;DHT22;9980;51.020;7.772;2022-11-04T01:23:58;12.90;99.90
19665;DHT22;9980;51.020;7.772;2022-11-04T01:26:52;12.90;99.90
19665;DHT22;9980;51.020;7.772;2022-11-04T01:29:31;12.90;99.90
19665;DHT22;9980;51.020;7.772;2022-11-04T01:32:17;12.90;99.90
19665;DHT22;9980;51.020;7.772;2022-11-04T01:34:56;12.90;99.90
19665;DHT22;9980;51.020;7.772;2022-11-04T01:37:42;12.90;99.90
19665;DHT22;9980;51.020;7.772;2022-11-04T01:40:21;12.90;99.90
19665;DHT22;9980;51.020;7.772;2022-11-04T01:43:16;12.90;99.90
19665;DHT22;9980;51.020;7.772;2022-11-04T01:45:58;12.90;99.90
19665;DHT22;9980;51.020;7.772;2022-11-04T01:48:45;12.90;99.90
19665;DHT22;9980;51.020;7.772;2022-11-04T01:51:26;12.80;99.90
19665;DHT22;9980;51.020;7.772;2022-11-04T01:54:14;12.80;99.90
19665;DHT22;9980;51.020;7.772;2022-11-04T01:56:55;12.80;99.90
19665;DHT22;9980;51.020;7.772;2022-11-04T01:59:54;12.80;99.90
19665;DHT22;9980;51.020;7.772;2022-11-04T02:02:53;12.80;99.90
19665;DHT22;9980;51.020;7.772;2022-11-04T02:05:43;12.80;99.90
19665;DHT22;9980;51.020;7.772;2022-11-04T02:08:17;12.70;99.90
19665;DHT22;9980;51.020;7.772;2022-11-04T02:11:11;12.70;99.90
19665;DHT22;9980;51.020;7.772;2022-11-04T02:14:04;12.70;99.90
19665;DHT22;9980;51.020;7.772;2022-11-04T02:17:14;12.70;99.90
19665;DHT22;9980;51.020;7.772;2022-11-04T02:23:50;12.60;99.90
19665;DHT22;9980;51.020;7.772;2022-11-04T02:30:19;12.50;99.90
19665;DHT22;9980;51.020;7.772;2022-11-04T02:36:28;12.50;99.90
19665;DHT22;9980;51.020;7.772;2022-11-04T02:39:48;12.40;99.90
19665;DHT22;9980;51.020;7.772;2022-11-04T02:45:41;12.30;99.90
19665;DHT22;9980;51.020;7.772;2022-11-04T02:48:25;12.30;99.90
19665;DHT22;9980;51.020;7.772;2022-11-04T02:51:34;12.30;99.90
19665;DHT22;9980;51.020;7.772;2022-11-04T02:54:27;12.20;99.90
19665;DHT22;9980;51.020;7.772;2022-11-04T02:57:18;12.20;99.90
19665;DHT22;9980;51.020;7.772;2022-11-04T03:00:06;12.20;99.90
19665;DHT22;9980;51.020;7.772;2022-11-04T03:03:00;12.10;99.90
19665;DHT22;9980;51.020;7.772;2022-11-04T03:05:47;12.10;99.90
19665;DHT22;9980;51.020;7.772;2022-11-04T03:08:39;12.10;99.90
19665;DHT22;9980;51.020;7.772;2022-11-04T03:11:24;12.10;99.90
19665;DHT22;9980;51.020;7.772;2022-11-04T03:14:26;12.10;99.90
19665;DHT22;9980;51.020;7.772;2022-11-04T03:17:19;12.00;99.90
19665;DHT22;9980;51.020;7.772;2022-11-04T03:20:36;12.00;99.90
19665;DHT22;9980;51.020;7.772;2022-11-04T03:23:11;12.00;99.90
19665;DHT22;9980;51.020;7.772;2022-11-04T03:29:25;12.00;99.90
19665;DHT22;9980;51.020;7.772;2022-11-04T03:32:39;12.00;99.90
19665;DHT22;9980;51.020;7.772;2022-11-04T03:35:28;12.00;99.90
19665;DHT22;9980;51.020;7.772;2022-11-04T03:38:15;12.00;99.90
19665;DHT22;9980;51.020;7.772;2022-11-04T03:40:56;11.90;99.90
19665;DHT22;9980;51.020;7.772;2022-11-04T03:43:46;12.00;99.90
19665;DHT22;9980;51.020;7.772;2022-11-04T03:46:25;11.90;99.90
19665;DHT22;9980;51.020;7.772;2022-11-04T03:49:20;12.00;99.90
19665;DHT22;9980;51.020;7.772;2022-11-04T03:51:54;12.00;99.90
19665;DHT22;9980;51.020;7.772;2022-11-04T03:54:49;12.00;99.90
19665;DHT22;9980;51.020;7.772;2022-11-04T03:57:37;12.00;99.90
19665;DHT22;9980;51.020;7.772;2022-11-04T04:00:52;12.00;99.90
19665;DHT22;9980;51.020;7.772;2022-11-04T04:03:45;12.00;99.90
19665;DHT22;9980;51.020;7.772;2022-11-04T04:06:49;12.00;99.90
19665;DHT22;9980;51.020;7.772;2022-11-04T04:09:45;12.00;99.90
19665;DHT22;9980;51.020;7.772;2022-11-04T04:12:41;12.00;99.90
19665;DHT22;9980;51.020;7.772;2022-11-04T04:15:27;12.00;99.90
19665;DHT22;9980;51.020;7.772;2022-11-04T04:18:28;11.90;99.90
19665;DHT22;9980;51.020;7.772;2022-11-04T04:21:16;11.90;99.90
19665;DHT22;9980;51.020;7.772;2022-11-04T04:24:07;11.90;99.90
19665;DHT22;9980;51.020;7.772;2022-11-04T04:27:09;11.80;99.90
19665;DHT22;9980;51.020;7.772;2022-11-04T04:30:18;11.90;99.90
19665;DHT22;9980;51.020;7.772;2022-11-04T04:33:10;11.80;99.90
19665;DHT22;9980;51.020;7.772;2022-11-04T04:36:08;11.70;99.90
19665;DHT22;9980;51.020;7.772;2022-11-04T04:38:42;11.70;99.90
19665;DHT22;9980;51.020;7.772;2022-11-04T04:41:54;11.70;99.90
19665;DHT22;9980;51.020;7.772;2022-11-04T04:44:52;11.70;99.90
19665;DHT22;9980;51.020;7.772;2022-11-04T04:47:44;11.70;99.90
19665;DHT22;9980;51.020;7.772;2022-11-04T04:50:32;11.70;99.90
19665;DHT22;9980;51.020;7.772;2022-11-04T04:53:22;11.70;99.90
19665;DHT22;9980;51.020;7.772;2022-11-04T04:56:01;11.70;99.90
19665;DHT22;9980;51.020;7.772;2022-11-04T04:58:47;11.70;99.90
19665;DHT22;9980;51.020;7.772;2022-11-04T05:01:26;11.70;99.90
19665;DHT22;9980;51.020;7.772;2022-11-04T05:04:20;11.70;99.90
19665;DHT22;9980;51.020;7.772;2022-11-04T05:06:53;11.70;99.90
19665;DHT22;9980;51.020;7.772;2022-11-04T05:09:46;11.70;99.90
19665;DHT22;9980;51.020;7.772;2022-11-04T05:12:19;11.80;99.90
19665;DHT22;9980;51.020;7.772;2022-11-04T05:15:33;11.70;99.90
19665;DHT22;9980;51.020;7.772;2022-11-04T05:18:06;11.70;99.90
19665;DHT22;9980;51.020;7.772;2022-11-04T05:21:03;11.80;99.90
19665;DHT22;9980;51.020;7.772;2022-11-04T05:23:40;11.80;99.90
19665;DHT22;9980;51.020;7.772;2022-11-04T05:26:33;11.80;99.90
19665;DHT22;9980;51.020;7.772;2022-11-04T05:29:07;11.70;99.90
19665;DHT22;9980;51.020;7.772;2022-11-04T05:32:01;11.70;99.90
19665;DHT22;9980;51.020;7.772;2022-11-04T05:34:40;11.70;99.90
19665;DHT22;9980;51.020;7.772;2022-11-04T05:37:26;11.70;99.90
19665;DHT22;9980;51.020;7.772;2022-11-04T05:40:05;11.70;99.90
19665;DHT22;9980;51.020;7.772;2022-11-04T05:42:52;11.70;99.90
19665;DHT22;9980;51.020;7.772;2022-11-04T05:45:31;11.70;99.90
19665;DHT22;9980;51.020;7.772;2022-11-04T05:48:17;11.70;99.90
19665;DHT22;9980;51.020;7.772;2022-11-04T05:50:56;11.70;99.90
19665;DHT22;9980;51.020;7.772;2022-11-04T05:53:42;11.70;99.90
19665;DHT22;9980;51.020;7.772;2022-11-04T05:56:21;11.70;99.90
19665;DHT22;9980;51.020;7.772;2022-11-04T05:59:07;11.70;99.90
19665;DHT22;9980;51.020;7.772;2022-11-04T06:01:46;11.70;99.90
19665;DHT22;9980;51.020;7.772;2022-11-04T06:04:39;11.60;99.90
19665;DHT22;9980;51.020;7.772;2022-11-04T06:07:12;11.60;99.90
19665;DHT22;9980;51.020;7.772;2022-11-04T06:10:05;11.60;99.90
19665;DHT22;9980;51.020;7.772;2022-11-04T06:12:38;11.50;99.90
19665;DHT22;9980;51.020;7.772;2022-11-04T06:15:31;11.60;99.90
19665;DHT22;9980;51.020;7.772;2022-11-04T06:18:04;11.50;99.90
19665;DHT22;9980;51.020;7.772;2022-11-04T06:23:45;11.40;99.90
19665;DHT22;9980;51.020;7.772;2022-11-04T06:26:38;11.30;99.90
19665;DHT22;9980;51.020;7.772;2022-11-04T06:29:11;11.30;99.90
19665;DHT22;9980;51.020;7.772;2022-11-04T06:32:08;11.30;99.90
19665;DHT22;9980;51.020;7.772;2022-11-04T06:34:50;11.20;99.90
19665;DHT22;9980;51.020;7.772;2022-11-04T06:37:36;11.20;99.90
19665;DHT22;9980;51.020;7.772;2022-11-04T06:40:15;11.20;99.90
19665;DHT22;9980;51.020;7.772;2022-11-04T06:43:01;11.20;99.90
19665;DHT22;9980;51.020;7.772;2022-11-04T06:45:42;11.10;99.90
19665;DHT22;9980;51.020;7.772;2022-11-04T06:48:29;11.10;99.90
19665;DHT22;9980;51.020;7.772;2022-11-04T06:51:09;11.10;99.90
19665;DHT22;9980;51.020;7.772;2022-11-04T06:53:55;11.10;99.90
19665;DHT22;9980;51.020;7.772;2022-11-04T06:56:34;11.10;99.90
19665;DHT22;9980;51.020;7.772;2022-11-04T06:59:21;11.10;99.90
19665;DHT22;9980;51.020;7.772;2022-11-04T07:02:01;11.10;99.90
19665;DHT22;9980;51.020;7.772;2022-11-04T07:04:54;11.10;99.90
19665;DHT22;9980;51.020;7.772;2022-11-04T07:07:28;11.10;99.90
19665;DHT22;9980;51.020;7.772;2022-11-04T07:10:21;11.10;99.90
19665;DHT22;9980;51.020;7.772;2022-11-04T07:12:54;11.10;99.90
19665;DHT22;9980;51.020;7.772;2022-11-04T07:15:47;11.10;99.90
19665;DHT22;9980;51.020;7.772;2022-11-04T07:18:20;11.20;99.90
19665;DHT22;9980;51.020;7.772;2022-11-04T07:21:13;11.20;99.90
19665;DHT22;9980;51.020;7.772;2022-11-04T07:23:52;11.20;99.90
19665;DHT22;9980;51.020;7.772;2022-11-04T07:26:38;11.20;99.90
19665;DHT22;9980;51.020;7.772;2022-11-04T07:29:11;11.20;99.90
19665;DHT22;9980;51.020;7.772;2022-11-04T07:32:04;11.30;99.90
19665;DHT22;9980;51.020;7.772;2022-11-04T07:34:44;11.30;99.90
19665;DHT22;9980;51.020;7.772;2022-11-04T07:37:30;11.30;99.90
19665;DHT22;9980;51.020;7.772;2022-11-04T07:40:10;11.40;99.90
19665;DHT22;9980;51.020;7.772;2022-11-04T07:42:56;11.40;99.90
19665;DHT22;9980;51.020;7.772;2022-11-04T07:45:36;11.50;99.90
19665;DHT22;9980;51.020;7.772;2022-11-04T07:48:22;11.50;99.90
19665;DHT22;9980;51.020;7.772;2022-11-04T07:51:03;11.60;99.90
19665;DHT22;9980;51.020;7.772;2022-11-04T07:53:50;11.60;99.90
19665;DHT22;9980;51.020;7.772;2022-11-04T07:56:29;11.70;99.90
19665;DHT22;9980;51.020;7.772;2022-11-04T07:59:15;11.70;99.90
19665;DHT22;9980;51.020;7.772;2022-11-04T08:01:54;11.70;99.90
19665;DHT22;9980;51.020;7.772;2022-11-04T08:04:47;11.80;99.90
19665;DHT22;9980;51.020;7.772;2022-11-04T08:07:20;11.90;99.90
19665;DHT22;9980;51.020;7.772;2022-11-04T08:10:13;11.90;99.90
19665;DHT22;9980;51.020;7.772;2022-11-04T08:12:46;12.00;99.90
19665;DHT22;9980;51.020;7.772;2022-11-04T08:15:39;12.00;99.90
19665;DHT22;9980;51.020;7.772;2022-11-04T08:18:12;12.00;99.90
19665;DHT22;9980;51.020;7.772;2022-11-04T08:21:05;12.10;99.90
19665;DHT22;9980;51.020;7.772;2022-11-04T08:23:39;12.10;99.90
19665;DHT22;9980;51.020;7.772;2022-11-04T08:26:32;12.20;99.90
19665;DHT22;9980;51.020;7.772;2022-11-04T08:29:07;12.20;99.90
19665;DHT22;9980;51.020;7.772;2022-11-04T08:32:00;12.30;99.90
19665;DHT22;9980;51.020;7.772;2022-11-04T08:34:33;12.30;99.90
19665;DHT22;9980;51.020;7.772;2022-11-04T08:37:26;12.40;99.90
19665;DHT22;9980;51.020;7.772;2022-11-04T08:40:06;12.40;99.90
19665;DHT22;9980;51.020;7.772;2022-11-04T08:42:52;12.50;99.90
19665;DHT22;9980;51.020;7.772;2022-11-04T08:45:31;12.50;99.90
19665;DHT22;9980;51.020;7.772;2022-11-04T08:48:17;12.60;99.90
19665;DHT22;9980;51.020;7.772;2022-11-04T08:50:57;12.70;99.90
19665;DHT22;9980;51.020;7.772;2022-11-04T08:53:43;12.70;99.90
19665;DHT22;9980;51.020;7.772;2022-11-04T08:56:28;12.80;99.90
19665;DHT22;9980;51.020;7.772;2022-11-04T08:59:23;12.90;99.90
19665;DHT22;9980;51.020;7.772;2022-11-04T09:02:02;13.00;99.90
19665;DHT22;9980;51.020;7.772;2022-11-04T09:04:55;13.10;99.90
19665;DHT22;9980;51.020;7.772;2022-11-04T09:07:28;13.10;99.90
19665;DHT22;9980;51.020;7.772;2022-11-04T09:10:21;13.20;99.90
19665;DHT22;9980;51.020;7.772;2022-11-04T09:12:54;13.20;99.90
19665;DHT22;9980;51.020;7.772;2022-11-04T09:15:47;13.30;99.90
19665;DHT22;9980;51.020;7.772;2022-11-04T09:18:26;13.40;99.90
19665;DHT22;9980;51.020;7.772;2022-11-04T09:21:19;13.50;99.90
19665;DHT22;9980;51.020;7.772;2022-11-04T09:23:53;13.50;99.90
19665;DHT22;9980;51.020;7.772;2022-11-04T09:26:46;13.50;99.90
19665;DHT22;9980;51.020;7.772;2022-11-04T09:29:25;13.60;99.90
19665;DHT22;9980;51.020;7.772;2022-11-04T09:32:12;13.60;99.90
19665;DHT22;9980;51.020;7.772;2022-11-04T09:34:51;13.60;99.90
19665;DHT22;9980;51.020;7.772;2022-11-04T09:37:37;13.70;99.90
19665;DHT22;9980;51.020;7.772;2022-11-04T09:40:19;13.70;99.90
19665;DHT22;9980;51.020;7.772;2022-11-04T09:44:11;13.80;99.90
19665;DHT22;9980;51.020;7.772;2022-11-04T09:46:31;13.80;99.90
19665;DHT22;9980;51.020;7.772;2022-11-04T09:49:31;13.90;99.90
19665;DHT22;9980;51.020;7.772;2022-11-04T09:52:37;14.00;99.90
19665;DHT22;9980;51.020;7.772;2022-11-04T09:56:05;14.00;99.90
19665;DHT22;9980;51.020;7.772;2022-11-04T09:58:46;14.00;99.90
19665;DHT22;9980;51.020;7.772;2022-11-04T10:02:00;14.10;99.90
19665;DHT22;9980;51.020;7.772;2022-11-04T10:18:10;14.40;99.90
19665;DHT22;9980;51.020;7.772;2022-11-04T10:27:58;14.60;99.90
19665;DHT22;9980;51.020;7.772;2022-11-04T10:30:40;14.70;99.90
19665;DHT22;9980;51.020;7.772;2022-11-04T10:33:59;14.70;99.70
19665;DHT22;9980;51.020;7.772;2022-11-04T10:36:47;14.70;99.80
19665;DHT22;9980;51.020;7.772;2022-11-04T10:39:45;14.80;99.70
19665;DHT22;9980;51.020;7.772;2022-11-04T10:42:19;14.80;99.90
19665;DHT22;9980;51.020;7.772;2022-11-04T10:45:13;14.80;99.80
19665;DHT22;9980;51.020;7.772;2022-11-04T10:47:54;14.90;99.60
19665;DHT22;9980;51.020;7.772;2022-11-04T10:50:57;14.90;99.50
19665;DHT22;9980;51.020;7.772;2022-11-04T10:53:32;15.00;99.50
19665;DHT22;9980;51.020;7.772;2022-11-04T10:56:44;15.10;99.50
19665;DHT22;9980;51.020;7.772;2022-11-04T10:59:27;15.10;99.40
19665;DHT22;9980;51.020;7.772;2022-11-04T11:08:03;15.30;99.10
19665;DHT22;9980;51.020;7.772;2022-11-04T11:10:50;15.40;99.10
19665;DHT22;9980;51.020;7.772;2022-11-04T11:13:42;15.50;98.70
19665;DHT22;9980;51.020;7.772;2022-11-04T11:16:25;15.60;98.80
19665;DHT22;9980;51.020;7.772;2022-11-04T11:19:21;15.60;98.90
19665;DHT22;9980;51.020;7.772;2022-11-04T11:22:03;15.70;98.40
19665;DHT22;9980;51.020;7.772;2022-11-04T11:25:28;15.70;98.60
19665;DHT22;9980;51.020;7.772;2022-11-04T11:28:11;15.80;98.10
19665;DHT22;9980;51.020;7.772;2022-11-04T11:31:14;15.80;98.10
19665;DHT22;9980;51.020;7.772;2022-11-04T11:34:14;15.80;98.10
19665;DHT22;9980;51.020;7.772;2022-11-04T11:37:20;15.80;98.20
19665;DHT22;9980;51.020;7.772;2022-11-04T11:39:56;15.80;97.80
19665;DHT22;9980;51.020;7.772;2022-11-04T11:42:40;15.80;98.00
19665;DHT22;9980;51.020;7.772;2022-11-04T11:45:33;15.80;98.00
19665;DHT22;9980;51.020;7.772;2022-11-04T11:48:27;15.80;97.60
19665;DHT22;9980;51.020;7.772;2022-11-04T11:51:37;15.80;97.90
19665;DHT22;9980;51.020;7.772;2022-11-04T11:54:32;15.80;97.60
19665;DHT22;9980;51.020;7.772;2022-11-04T12:01:03;15.80;98.20
19665;DHT22;9980;51.020;7.772;2022-11-04T12:04:03;15.80;97.80
19665;DHT22;9980;51.020;7.772;2022-11-04T12:10:41;15.80;98.00
19665;DHT22;9980;51.020;7.772;2022-11-04T12:13:45;15.80;97.60
19665;DHT22;9980;51.020;7.772;2022-11-04T12:16:32;15.80;98.00
19665;DHT22;9980;51.020;7.772;2022-11-04T12:19:58;15.80;98.20
19665;DHT22;9980;51.020;7.772;2022-11-04T12:45:51;15.90;97.10
19665;DHT22;9980;51.020;7.772;2022-11-04T12:48:57;15.90;97.50
19665;DHT22;9980;51.020;7.772;2022-11-04T12:52:49;15.90;97.30
19665;DHT22;9980;51.020;7.772;2022-11-04T13:02:28;15.90;97.50
19665;DHT22;9980;51.020;7.772;2022-11-04T13:05:42;15.90;97.40
19665;DHT22;9980;51.020;7.772;2022-11-04T13:08:34;15.80;97.30
19665;DHT22;9980;51.020;7.772;2022-11-04T13:11:37;15.80;97.40
19665;DHT22;9980;51.020;7.772;2022-11-04T13:14:22;15.80;97.00
19665;DHT22;9980;51.020;7.772;2022-11-04T13:17:25;15.70;97.20
19665;DHT22;9980;51.020;7.772;2022-11-04T13:23:00;15.60;97.40
19665;DHT22;9980;51.020;7.772;2022-11-04T13:25:45;15.50;97.70
19665;DHT22;9980;51.020;7.772;2022-11-04T13:28:51;15.50;97.80
19665;DHT22;9980;51.020;7.772;2022-11-04T13:31:55;15.40;98.20
19665;DHT22;9980;51.020;7.772;2022-11-04T13:44:27;15.30;98.50
19665;DHT22;9980;51.020;7.772;2022-11-04T13:47:18;15.30;98.60
19665;DHT22;9980;51.020;7.772;2022-11-04T13:53:11;15.20;98.60
19665;DHT22;9980;51.020;7.772;2022-11-04T13:56:06;15.20;98.60
19665;DHT22;9980;51.020;7.772;2022-11-04T13:59:26;15.20;98.60
19665;DHT22;9980;51.020;7.772;2022-11-04T14:04:54;15.20;98.80
19665;DHT22;9980;51.020;7.772;2022-11-04T14:13:42;15.20;99.00
19665;DHT22;9980;51.020;7.772;2022-11-04T14:19:47;15.20;98.80
19665;DHT22;9980;51.020;7.772;2022-11-04T14:31:07;15.20;99.00
19665;DHT22;9980;51.020;7.772;2022-11-04T14:33:56;15.20;99.00
19665;DHT22;9980;51.020;7.772;2022-11-04T14:37:05;15.20;99.00
19665;DHT22;9980;51.020;7.772;2022-11-04T14:39:57;15.20;99.00
19665;DHT22;9980;51.020;7.772;2022-11-04T14:42:54;15.20;99.10
19665;DHT22;9980;51.020;7.772;2022-11-04T14:45:38;15.20;99.30
19665;DHT22;9980;51.020;7.772;2022-11-04T14:48:25;15.20;99.00
19665;DHT22;9980;51.020;7.772;2022-11-04T14:51:26;15.20;98.90
19665;DHT22;9980;51.020;7.772;2022-11-04T14:54:22;15.20;98.90
19665;DHT22;9980;51.020;7.772;2022-11-04T14:57:21;15.20;98.80
19665;DHT22;9980;51.020;7.772;2022-11-04T15:00:32;15.20;99.00
19665;DHT22;9980;51.020;7.772;2022-11-04T15:03:15;15.20;98.90
19665;DHT22;9980;51.020;7.772;2022-11-04T15:06:34;15.20;99.00
19665;DHT22;9980;51.020;7.772;2022-11-04T15:09:31;15.20;98.90
19665;DHT22;9980;51.020;7.772;2022-11-04T15:12:26;15.20;98.90
19665;DHT22;9980;51.020;7.772;2022-11-04T15:15:28;15.10;98.90
19665;DHT22;9980;51.020;7.772;2022-11-04T15:18:25;15.10;99.00
19665;DHT22;9980;51.020;7.772;2022-11-04T15:21:07;15.10;98.90
19665;DHT22;9980;51.020;7.772;2022-11-04T15:23:55;15.00;99.00
19665;DHT22;9980;51.020;7.772;2022-11-04T15:26:34;15.00;99.00
19665;DHT22;9980;51.020;7.772;2022-11-04T15:29:22;14.90;99.00
19665;DHT22;9980;51.020;7.772;2022-11-04T15:32:04;14.90;99.10
19665;DHT22;9980;51.020;7.772;2022-11-04T15:34:49;14.90;99.10
19665;DHT22;9980;51.020;7.772;2022-11-04T15:37:31;14.80;99.10
19665;DHT22;9980;51.020;7.772;2022-11-04T15:40:27;14.80;99.10
19665;DHT22;9980;51.020;7.772;2022-11-04T15:43:02;14.70;99.10
19665;DHT22;9980;51.020;7.772;2022-11-04T15:45:56;14.70;99.20
19665;DHT22;9980;51.020;7.772;2022-11-04T15:48:35;14.70;99.20
19665;DHT22;9980;51.020;7.772;2022-11-04T15:51:33;14.60;99.20
19665;DHT22;9980;51.020;7.772;2022-11-04T15:54:23;14.60;99.30
19665;DHT22;9980;51.020;7.772;2022-11-04T15:57:23;14.50;99.40
19665;DHT22;9980;51.020;7.772;2022-11-04T16:00:02;14.50;99.30
19665;DHT22;9980;51.020;7.772;2022-11-04T16:02:59;14.50;99.30
19665;DHT22;9980;51.020;7.772;2022-11-04T16:05:38;14.40;99.30
19665;DHT22;9980;51.020;7.772;2022-11-04T16:08:27;14.50;99.40
19665;DHT22;9980;51.020;7.772;2022-11-04T16:11:16;14.40;99.40
19665;DHT22;9980;51.020;7.772;2022-11-04T16:14:34;14.40;99.40
19665;DHT22;9980;51.020;7.772;2022-11-04T16:17:13;14.30;99.50
19665;DHT22;9980;51.020;7.772;2022-11-04T16:20:04;14.30;99.40
19665;DHT22;9980;51.020;7.772;2022-11-04T16:22:44;14.20;99.40
19665;DHT22;9980;51.020;7.772;2022-11-04T16:25:38;14.20;99.40
19665;DHT22;9980;51.020;7.772;2022-11-04T16:28:21;14.10;99.40
19665;DHT22;9980;51.020;7.772;2022-11-04T16:33:53;14.10;99.40
19665;DHT22;9980;51.020;7.772;2022-11-04T16:36:46;14.00;99.40
19665;DHT22;9980;51.020;7.772;2022-11-04T16:39:19;14.00;99.60
19665;DHT22;9980;51.020;7.772;2022-11-04T16:42:13;14.00;99.50
19665;DHT22;9980;51.020;7.772;2022-11-04T16:44:49;13.90;99.60
19665;DHT22;9980;51.020;7.772;2022-11-04T16:47:46;13.90;99.70
19665;DHT22;9980;51.020;7.772;2022-11-04T16:50:26;13.90;99.80
19665;DHT22;9980;51.020;7.772;2022-11-04T16:53:12;13.80;99.80
19665;DHT22;9980;51.020;7.772;2022-11-04T16:55:52;13.80;99.90
19665;DHT22;9980;51.020;7.772;2022-11-04T16:58:39;13.80;99.90
19665;DHT22;9980;51.020;7.772;2022-11-04T17:01:18;13.80;99.90
19665;DHT22;9980;51.020;7.772;2022-11-04T17:04:05;13.80;99.90
19665;DHT22;9980;51.020;7.772;2022-11-04T17:06:44;13.70;99.90
19665;DHT22;9980;51.020;7.772;2022-11-04T17:09:30;13.70;99.90
19665;DHT22;9980;51.020;7.772;2022-11-04T17:12:10;13.70;99.90
19665;DHT22;9980;51.020;7.772;2022-11-04T17:15:04;13.70;99.90
19665;DHT22;9980;51.020;7.772;2022-11-04T17:17:44;13.60;99.90
19665;DHT22;9980;51.020;7.772;2022-11-04T17:20:48;13.60;99.90
19665;DHT22;9980;51.020;7.772;2022-11-04T17:23:23;13.60;99.90
19665;DHT22;9980;51.020;7.772;2022-11-04T17:26:16;13.50;99.90
19665;DHT22;9980;51.020;7.772;2022-11-04T17:28:49;13.50;99.90
19665;DHT22;9980;51.020;7.772;2022-11-04T17:31:42;13.40;99.80
19665;DHT22;9980;51.020;7.772;2022-11-04T17:34:41;13.40;99.70
19665;DHT22;9980;51.020;7.772;2022-11-04T17:37:34;13.30;99.60
19665;DHT22;9980;51.020;7.772;2022-11-04T17:40:14;13.20;99.50
19665;DHT22;9980;51.020;7.772;2022-11-04T17:43:08;13.20;99.60
19665;DHT22;9980;51.020;7.772;2022-11-04T17:46:07;13.10;99.60
19665;DHT22;9980;51.020;7.772;2022-11-04T17:49:18;13.10;99.70
19665;DHT22;9980;51.020;7.772;2022-11-04T17:51:59;13.00;99.80
19665;DHT22;9980;51.020;7.772;2022-11-04T17:54:45;13.00;99.90
19665;DHT22;9980;51.020;7.772;2022-11-04T17:57:25;12.90;99.90
19665;DHT22;9980;51.020;7.772;2022-11-04T18:00:11;12.90;99.90
19665;DHT22;9980;51.020;7.772;2022-11-04T18:02:51;12.80;99.90
19665;DHT22;9980;51.020;7.772;2022-11-04T18:05:44;12.80;99.90
19665;DHT22;9980;51.020;7.772;2022-11-04T18:08:17;12.70;99.90
19665;DHT22;9980;51.020;7.772;2022-11-04T18:11:14;12.70;99.90
19665;DHT22;9980;51.020;7.772;2022-11-04T18:14:07;12.70;99.90
19665;DHT22;9980;51.020;7.772;2022-11-04T18:17:00;12.70;99.90
19665;DHT22;9980;51.020;7.772;2022-11-04T18:19:34;12.70;99.90
19665;DHT22;9980;51.020;7.772;2022-11-04T18:22:26;12.70;99.90
19665;DHT22;9980;51.020;7.772;2022-11-04T18:25:00;12.70;99.90
19665;DHT22;9980;51.020;7.772;2022-11-04T18:27:53;12.70;99.90
19665;DHT22;9980;51.020;7.772;2022-11-04T18:30:32;12.60;99.90
19665;DHT22;9980;51.020;7.772;2022-11-04T18:33:18;12.60;99.90
19665;DHT22;9980;51.020;7.772;2022-11-04T18:36:02;12.60;99.90
19665;DHT22;9980;51.020;7.772;2022-11-04T18:38:49;12.60;99.90
19665;DHT22;9980;51.020;7.772;2022-11-04T18:41:29;12.60;99.90
19665;DHT22;9980;51.020;7.772;2022-11-04T18:44:19;12.60;99.90
19665;DHT22;9980;51.020;7.772;2022-11-04T18:47:00;12.60;99.90
19665;DHT22;9980;51.020;7.772;2022-11-04T18:49:46;12.60;99.90
19665;DHT22;9980;51.020;7.772;2022-11-04T18:52:25;12.50;99.90
19665;DHT22;9980;51.020;7.772;2022-11-04T18:55:18;12.60;99.90
19665;DHT22;9980;51.020;7.772;2022-11-04T18:57:54;12.50;99.90
19665;DHT22;9980;51.020;7.772;2022-11-04T19:00:47;12.50;99.90
19665;DHT22;9980;51.020;7.772;2022-11-04T19:03:20;12.50;99.90
19665;DHT22;9980;51.020;7.772;2022-11-04T19:06:19;12.50;99.90
19665;DHT22;9980;51.020;7.772;2022-11-04T19:09:05;12.50;99.90
19665;DHT22;9980;51.020;7.772;2022-11-04T19:12:19;12.50;99.90
19665;DHT22;9980;51.020;7.772;2022-11-04T19:15:11;12.40;99.90
19665;DHT22;9980;51.020;7.772;2022-11-04T19:18:03;12.40;99.90
19665;DHT22;9980;51.020;7.772;2022-11-04T19:20:43;12.40;99.90
19665;DHT22;9980;51.020;7.772;2022-11-04T19:23:31;12.30;99.90
19665;DHT22;9980;51.020;7.772;2022-11-04T19:26:15;12.30;99.90
19665;DHT22;9980;51.020;7.772;2022-11-04T19:29:07;12.30;99.90
19665;DHT22;9980;51.020;7.772;2022-11-04T19:31:45;12.20;99.90
19665;DHT22;9980;51.020;7.772;2022-11-04T19:34:38;12.20;99.90
19665;DHT22;9980;51.020;7.772;2022-11-04T19:37:17;12.20;99.90
19665;DHT22;9980;51.020;7.772;2022-11-04T19:40:04;12.20;99.90
19665;DHT22;9980;51.020;7.772;2022-11-04T19:42:43;12.10;99.90
19665;DHT22;9980;51.020;7.772;2022-11-04T19:45:59;12.10;99.90
19665;DHT22;9980;51.020;7.772;2022-11-04T19:48:36;12.10;99.90
19665;DHT22;9980;51.020;7.772;2022-11-04T19:51:29;12.00;99.90
19665;DHT22;9980;51.020;7.772;2022-11-04T19:54:04;12.00;99.90
19665;DHT22;9980;51.020;7.772;2022-11-04T19:56:57;12.00;99.90
19665;DHT22;9980;51.020;7.772;2022-11-04T19:59:31;12.00;99.90
19665;DHT22;9980;51.020;7.772;2022-11-04T20:02:23;12.00;99.90
19665;DHT22;9980;51.020;7.772;2022-11-04T20:04:57;12.00;99.90